createdAt,value
2022-07-29T00:02:00.217Z,18.40
2022-07-29T00:04:31.670Z,18.50
2022-07-29T00:07:03.327Z,18.50
2022-07-29T00:09:42.960Z,18.40
2022-07-29T00:12:26.471Z,18.50
2022-07-29T00:14:58.893Z,18.50
2022-07-29T00:17:30.517Z,18.50
2022-07-29T00:20:01.785Z,18.40
2022-07-29T00:22:33.608Z,18.40
2022-07-29T00:25:08.322Z,18.30
2022-07-29T00:27:40.758Z,18.20
2022-07-29T00:30:12.155Z,18.10
2022-07-29T00:32:43.989Z,18.10
2022-07-29T00:35:27.690Z,18.10
2022-07-29T00:37:59.338Z,18.10
2022-07-29T00:40:33.315Z,18.10
2022-07-29T00:43:05.591Z,18.00
2022-07-29T00:45:36.993Z,18.00
2022-07-29T00:48:09.983Z,18.00
2022-07-29T00:50:43.212Z,17.90
2022-07-29T00:53:16.822Z,17.90
2022-07-29T00:55:52.735Z,17.90
2022-07-29T00:58:25.265Z,17.80
2022-07-29T01:00:57.185Z,17.80
2022-07-29T01:03:28.656Z,17.80
2022-07-29T01:06:00.315Z,17.80
2022-07-29T01:08:31.672Z,17.80
2022-07-29T01:11:06.305Z,17.80
2022-07-29T01:13:38.485Z,17.80
2022-07-29T01:16:17.060Z,17.90
2022-07-29T01:18:51.522Z,17.90
2022-07-29T01:21:48.846Z,18.00
2022-07-29T01:24:37.470Z,18.00
2022-07-29T01:27:24.074Z,18.00
2022-07-29T01:30:01.769Z,18.00
2022-07-29T01:32:40.278Z,18.00
2022-07-29T01:35:20.903Z,17.90
2022-07-29T01:37:59.546Z,17.90
2022-07-29T01:40:37.418Z,17.90
2022-07-29T01:43:14.521Z,17.90
2022-07-29T01:45:52.820Z,17.90
2022-07-29T01:48:27.293Z,17.90
2022-07-29T01:51:08.362Z,17.90
2022-07-29T01:53:46.486Z,17.90
2022-07-29T01:56:20.706Z,17.90
2022-07-29T01:58:53.122Z,17.90
2022-07-29T02:01:29.731Z,17.80
2022-07-29T02:04:03.439Z,17.90
2022-07-29T02:06:39.197Z,17.80
2022-07-29T02:09:12.161Z,17.80
2022-07-29T02:11:46.886Z,17.90
2022-07-29T02:14:19.811Z,17.80
2022-07-29T02:16:58.196Z,17.80
2022-07-29T02:19:31.355Z,17.90
2022-07-29T02:22:03.922Z,17.90
2022-07-29T02:24:35.442Z,18.00
2022-07-29T02:27:08.425Z,18.00
2022-07-29T02:29:40.759Z,17.90
2022-07-29T02:32:17.754Z,17.90
2022-07-29T02:34:50.431Z,17.90
2022-07-29T02:37:23.549Z,17.90
2022-07-29T02:39:57.821Z,17.90
2022-07-29T02:42:31.490Z,17.90
2022-07-29T02:45:02.742Z,17.90
2022-07-29T02:47:43.827Z,18.00
2022-07-29T02:50:19.318Z,18.00
2022-07-29T02:52:58.286Z,18.10
2022-07-29T02:55:33.711Z,18.00
2022-07-29T02:58:07.404Z,18.10
2022-07-29T03:00:42.465Z,18.00
2022-07-29T03:03:21.202Z,18.00
2022-07-29T03:05:52.538Z,18.00
2022-07-29T03:08:24.738Z,18.00
2022-07-29T03:10:56.896Z,18.00
2022-07-29T03:13:29.764Z,18.00
2022-07-29T03:16:01.936Z,18.10
2022-07-29T03:18:37.225Z,18.10
2022-07-29T03:21:08.804Z,18.10
2022-07-29T03:23:40.348Z,18.10
2022-07-29T03:26:11.638Z,18.00
2022-07-29T03:28:43.284Z,18.00
2022-07-29T03:31:14.593Z,18.00
2022-07-29T03:33:48.661Z,18.00
2022-07-29T03:36:19.940Z,18.00
2022-07-29T03:38:52.724Z,18.00
2022-07-29T03:41:26.521Z,17.90
2022-07-29T03:43:59.075Z,17.90
2022-07-29T03:46:32.782Z,17.80
2022-07-29T03:49:09.386Z,17.80
2022-07-29T03:51:41.113Z,17.80
2022-07-29T03:54:12.816Z,17.90
2022-07-29T03:56:47.885Z,17.80
2022-07-29T03:59:21.650Z,17.80
2022-07-29T04:01:53.995Z,17.80
2022-07-29T04:04:29.407Z,17.70
2022-07-29T04:07:00.658Z,17.80
2022-07-29T04:09:32.137Z,17.80
2022-07-29T04:12:04.401Z,17.80
2022-07-29T04:14:37.006Z,17.90
2022-07-29T04:17:08.981Z,17.90
2022-07-29T04:19:42.945Z,18.10
2022-07-29T04:22:14.151Z,18.40
2022-07-29T04:24:45.562Z,18.80
2022-07-29T04:27:16.662Z,19.20
2022-07-29T04:29:56.721Z,19.40
2022-07-29T04:32:28.796Z,19.10
2022-07-29T04:35:02.849Z,19.30
2022-07-29T04:37:34.137Z,19.20
2022-07-29T04:40:05.706Z,19.20
2022-07-29T04:42:45.059Z,18.90
2022-07-29T04:45:22.532Z,18.80
2022-07-29T04:47:54.232Z,18.70
2022-07-29T04:50:28.669Z,18.70
2022-07-29T04:52:59.913Z,19.20
2022-07-29T04:55:31.462Z,19.60
2022-07-29T04:58:02.787Z,19.80
2022-07-29T05:00:34.248Z,20.30
2022-07-29T05:03:05.502Z,20.60
2022-07-29T05:05:40.708Z,21.00
2022-07-29T05:08:12.033Z,21.50
2022-07-29T05:10:43.591Z,21.40
2022-07-29T05:13:14.894Z,21.70
2022-07-29T05:15:46.594Z,21.80
2022-07-29T05:18:18.026Z,22.00
2022-07-29T05:20:52.172Z,21.90
2022-07-29T05:23:23.429Z,22.10
2022-07-29T05:25:54.996Z,22.40
2022-07-29T05:28:26.212Z,22.60
2022-07-29T05:30:57.780Z,22.80
2022-07-29T05:33:35.091Z,22.90
2022-07-29T05:36:11.408Z,23.00
2022-07-29T05:38:42.974Z,22.90
2022-07-29T05:41:14.513Z,23.30
2022-07-29T05:43:45.734Z,23.50
2022-07-29T05:46:17.876Z,23.70
2022-07-29T05:48:49.262Z,23.70
2022-07-29T05:51:23.630Z,23.60
2022-07-29T05:53:54.958Z,23.70
2022-07-29T05:56:26.466Z,23.70
2022-07-29T05:58:58.027Z,23.70
2022-07-29T06:01:30.080Z,23.60
2022-07-29T06:04:01.186Z,23.60
2022-07-29T06:06:35.386Z,24.00
2022-07-29T06:09:12.229Z,24.20
2022-07-29T06:11:44.240Z,24.10
2022-07-29T06:14:15.806Z,24.00
2022-07-29T06:16:47.637Z,24.00
2022-07-29T06:19:18.972Z,23.80
2022-07-29T06:21:53.131Z,24.00
2022-07-29T06:24:24.383Z,24.20
2022-07-29T06:26:55.578Z,24.40
2022-07-29T06:29:26.910Z,24.50
2022-07-29T06:31:58.388Z,24.80
2022-07-29T06:34:29.652Z,24.50
2022-07-29T06:37:09.267Z,24.80
2022-07-29T06:39:47.209Z,25.00
2022-07-29T06:42:18.811Z,24.90
2022-07-29T06:44:51.779Z,24.60
2022-07-29T06:47:23.252Z,24.80
2022-07-29T06:49:54.340Z,24.80
2022-07-29T06:52:28.524Z,25.00
2022-07-29T06:55:00.825Z,24.90
2022-07-29T06:57:32.288Z,25.00
2022-07-29T07:00:05.488Z,25.10
2022-07-29T07:02:37.142Z,25.30
2022-07-29T07:05:10.087Z,25.20
2022-07-29T07:07:44.340Z,25.10
2022-07-29T07:10:16.039Z,25.30
2022-07-29T07:12:47.684Z,25.60
2022-07-29T07:15:22.871Z,25.40
2022-07-29T07:18:11.028Z,25.00
2022-07-29T07:20:42.332Z,25.10
2022-07-29T07:23:16.496Z,25.20
2022-07-29T07:25:47.684Z,25.60
2022-07-29T07:28:19.236Z,25.80
2022-07-29T07:30:56.422Z,25.90
2022-07-29T07:33:28.044Z,25.70
2022-07-29T07:35:59.671Z,25.20
2022-07-29T07:38:33.810Z,24.70
2022-07-29T07:41:05.597Z,24.50
2022-07-29T07:43:37.127Z,24.50
2022-07-29T07:46:08.620Z,24.50
2022-07-29T07:48:40.718Z,24.40
2022-07-29T07:51:12.811Z,24.30
2022-07-29T07:53:50.588Z,24.50
2022-07-29T07:56:22.125Z,24.80
2022-07-29T07:58:54.357Z,25.10
2022-07-29T08:01:25.798Z,25.40
2022-07-29T08:03:57.564Z,25.10
2022-07-29T08:06:28.941Z,25.40
2022-07-29T08:09:26.650Z,25.50
2022-07-29T08:11:54.610Z,25.60
2022-07-29T08:14:25.736Z,25.50
2022-07-29T08:16:56.954Z,25.40
2022-07-29T08:19:28.694Z,25.10
2022-07-29T08:21:59.934Z,25.20
2022-07-29T08:24:46.382Z,25.50
2022-07-29T08:27:41.931Z,25.70
2022-07-29T08:30:11.830Z,25.90
2022-07-29T08:32:53.615Z,25.60
2022-07-29T08:35:30.926Z,25.50
2022-07-29T08:38:04.693Z,25.50
2022-07-29T08:40:38.591Z,25.60
2022-07-29T08:43:10.741Z,25.60
2022-07-29T08:45:48.575Z,25.60
2022-07-29T08:48:22.216Z,25.60
2022-07-29T08:51:01.627Z,25.80
2022-07-29T08:53:34.292Z,25.80
2022-07-29T08:56:09.970Z,26.00
2022-07-29T08:58:41.225Z,26.10
2022-07-29T09:01:15.825Z,26.10
2022-07-29T09:03:50.045Z,26.10
2022-07-29T09:06:27.762Z,26.00
2022-07-29T09:09:02.280Z,26.10
2022-07-29T09:11:36.736Z,26.20
2022-07-29T09:14:08.097Z,26.40
2022-07-29T09:16:53.768Z,26.40
2022-07-29T09:19:32.804Z,26.30
2022-07-29T09:22:06.340Z,26.20
2022-07-29T09:24:43.187Z,26.10
2022-07-29T09:27:27.099Z,26.00
2022-07-29T09:30:02.580Z,26.00
2022-07-29T09:32:35.630Z,26.10
2022-07-29T09:35:19.336Z,26.20
2022-07-29T09:37:51.758Z,26.30
2022-07-29T09:40:24.689Z,26.20
2022-07-29T09:42:59.491Z,26.10
2022-07-29T09:45:33.165Z,25.90
2022-07-29T09:48:18.406Z,26.20
2022-07-29T09:50:50.928Z,26.30
2022-07-29T09:53:36.301Z,26.20
2022-07-29T09:56:08.736Z,26.30
2022-07-29T09:58:43.852Z,26.50
2022-07-29T10:01:16.236Z,26.60
2022-07-29T10:03:57.078Z,26.50
2022-07-29T10:06:28.372Z,26.60
2022-07-29T10:09:12.178Z,26.70
2022-07-29T10:11:49.487Z,26.90
2022-07-29T10:14:24.114Z,26.80
2022-07-29T10:16:55.599Z,26.70
2022-07-29T10:19:27.579Z,26.60
2022-07-29T10:22:00.175Z,26.50
2022-07-29T10:24:33.690Z,26.50
2022-07-29T10:27:06.857Z,26.50
2022-07-29T10:29:41.149Z,26.50
2022-07-29T10:32:27.611Z,26.40
2022-07-29T10:35:42.421Z,26.10
2022-07-29T10:38:48.070Z,25.90
2022-07-29T10:41:44.733Z,25.80
2022-07-29T10:44:23.198Z,26.00
2022-07-29T10:46:58.498Z,26.50
2022-07-29T10:49:31.699Z,26.70
2022-07-29T10:52:06.875Z,27.00
2022-07-29T10:54:47.389Z,27.20
2022-07-29T10:57:21.878Z,27.30
2022-07-29T11:00:36.310Z,27.40
2022-07-29T11:03:11.792Z,27.30
2022-07-29T11:05:59.804Z,27.10
2022-07-29T11:08:32.021Z,27.10
2022-07-29T11:11:37.999Z,27.10
2022-07-29T11:14:10.662Z,27.00
2022-07-29T11:17:06.928Z,26.90
2022-07-29T11:19:46.801Z,26.90
2022-07-29T11:22:36.658Z,26.90
2022-07-29T11:25:17.827Z,26.90
2022-07-29T11:27:50.032Z,26.80
2022-07-29T11:30:25.118Z,26.70
2022-07-29T11:32:56.542Z,26.70
2022-07-29T11:35:38.260Z,26.70
2022-07-29T11:38:31.879Z,26.70
2022-07-29T11:41:27.132Z,26.70
2022-07-29T11:44:01.572Z,26.60
2022-07-29T11:46:50.976Z,26.50
2022-07-29T11:49:32.408Z,26.50
2022-07-29T11:52:08.321Z,26.60
2022-07-29T11:54:58.095Z,26.50
2022-07-29T11:57:35.965Z,26.60
2022-07-29T12:00:12.526Z,26.70
2022-07-29T12:02:48.458Z,27.00
2022-07-29T12:08:16.112Z,27.20
2022-07-29T12:10:48.144Z,27.20
2022-07-29T12:13:22.397Z,27.30
2022-07-29T12:15:59.763Z,27.30
2022-07-29T12:18:31.905Z,27.40
2022-07-29T12:21:05.365Z,27.30
2022-07-29T12:23:39.627Z,27.20
2022-07-29T12:26:25.499Z,27.00
2022-07-29T12:28:57.814Z,27.00
2022-07-29T12:31:42.230Z,27.00
2022-07-29T12:34:16.390Z,27.10
2022-07-29T12:36:47.999Z,27.10
2022-07-29T12:39:22.866Z,27.10
2022-07-29T12:41:54.239Z,27.00
2022-07-29T12:44:50.526Z,27.00
2022-07-29T12:47:23.224Z,27.10
2022-07-29T12:50:10.842Z,27.20
2022-07-29T12:52:42.169Z,27.20
2022-07-29T12:55:16.482Z,27.30
2022-07-29T12:57:51.841Z,27.30
2022-07-29T13:00:27.742Z,27.30
2022-07-29T13:03:00.173Z,27.40
2022-07-29T13:05:49.154Z,27.40
2022-07-29T13:08:22.916Z,27.40
2022-07-29T13:10:57.555Z,27.40
2022-07-29T13:13:28.845Z,27.40
2022-07-29T13:16:11.730Z,27.40
2022-07-29T13:18:42.992Z,27.50
2022-07-29T13:21:16.133Z,27.50
2022-07-29T13:23:47.807Z,27.50
2022-07-29T13:26:22.058Z,27.50
2022-07-29T13:28:53.344Z,27.50
2022-07-29T13:31:25.837Z,27.50
2022-07-29T13:33:57.541Z,27.50
2022-07-29T13:36:29.110Z,27.50
2022-07-29T13:39:02.292Z,27.60
2022-07-29T13:41:36.616Z,27.50
2022-07-29T13:44:08.486Z,27.60
2022-07-29T13:46:40.254Z,27.60
2022-07-29T13:49:12.634Z,27.60
2022-07-29T13:51:44.160Z,27.60
2022-07-29T13:54:15.691Z,27.60
2022-07-29T13:56:49.997Z,27.60
2022-07-29T13:59:21.294Z,27.50
2022-07-29T14:01:53.218Z,27.40
2022-07-29T14:04:24.703Z,27.40
2022-07-29T14:06:56.384Z,27.40
2022-07-29T14:09:27.701Z,27.40
2022-07-29T14:12:03.610Z,27.50
2022-07-29T14:14:38.054Z,27.30
2022-07-29T14:17:10.195Z,27.30
2022-07-29T14:19:41.759Z,27.20
2022-07-29T14:22:13.799Z,27.10
2022-07-29T14:24:45.317Z,26.90
2022-07-29T14:27:20.110Z,26.80
2022-07-29T14:30:11.253Z,26.80
2022-07-29T14:32:43.029Z,26.90
2022-07-29T14:35:34.393Z,27.00
2022-07-29T14:38:05.600Z,27.20
2022-07-29T14:40:37.644Z,27.30
2022-07-29T14:43:11.901Z,27.40
2022-07-29T14:45:43.346Z,27.40
2022-07-29T14:48:15.178Z,27.40
2022-07-29T14:50:46.169Z,27.30
2022-07-29T14:53:17.842Z,27.30
2022-07-29T14:55:48.855Z,27.30
2022-07-29T14:58:23.848Z,27.30
2022-07-29T15:00:55.881Z,27.30
2022-07-29T15:03:29.009Z,27.40
2022-07-29T15:06:00.697Z,27.30
2022-07-29T15:08:32.473Z,27.30
2022-07-29T15:11:03.485Z,27.30
2022-07-29T15:13:37.848Z,27.30
2022-07-29T15:16:10.402Z,27.20
2022-07-29T15:18:43.312Z,27.10
2022-07-29T15:21:15.335Z,27.00
2022-07-29T15:23:47.098Z,27.00
2022-07-29T15:26:19.227Z,26.90
2022-07-29T15:28:53.686Z,26.80
2022-07-29T15:31:25.277Z,26.80
2022-07-29T15:33:59.444Z,26.80
2022-07-29T15:39:25.200Z,26.60
2022-07-29T15:41:56.797Z,26.60
2022-07-29T15:44:31.112Z,26.50
2022-07-29T15:47:09.095Z,26.50
2022-07-29T15:49:46.676Z,26.50
2022-07-29T15:52:25.760Z,26.40
2022-07-29T15:54:58.744Z,26.40
2022-07-29T15:57:29.970Z,26.30
2022-07-29T16:00:04.063Z,26.30
2022-07-29T16:02:39.295Z,26.30
2022-07-29T16:05:11.119Z,26.20
2022-07-29T16:07:42.012Z,26.20
2022-07-29T16:10:13.409Z,26.10
2022-07-29T16:12:44.719Z,26.10
2022-07-29T16:15:18.522Z,26.10
2022-07-29T16:17:50.582Z,26.10
2022-07-29T16:20:22.565Z,26.10
2022-07-29T16:22:54.083Z,26.00
2022-07-29T16:25:49.997Z,26.00
2022-07-29T16:30:00.246Z,26.50
2022-07-29T16:32:33.857Z,26.60
2022-07-29T16:35:05.588Z,26.50
2022-07-29T16:37:38.191Z,26.40
2022-07-29T16:40:11.987Z,26.30
2022-07-29T16:42:47.081Z,26.20
2022-07-29T16:45:21.655Z,26.10
2022-07-29T16:47:57.202Z,26.00
2022-07-29T16:50:31.935Z,25.90
2022-07-29T16:53:03.788Z,25.60
2022-07-29T16:55:35.290Z,25.30
2022-07-29T16:58:07.181Z,25.10
2022-07-29T17:00:41.985Z,25.10
2022-07-29T17:03:13.670Z,25.00
2022-07-29T17:05:52.338Z,25.00
2022-07-29T17:08:26.522Z,25.10
2022-07-29T17:10:57.880Z,25.30
2022-07-29T17:13:29.016Z,25.40
2022-07-29T17:16:02.867Z,25.50
2022-07-29T17:18:34.520Z,25.50
2022-07-29T17:21:06.042Z,25.50
2022-07-29T17:23:37.607Z,25.50
2022-07-29T17:26:09.012Z,25.50
2022-07-29T17:28:40.945Z,25.50
2022-07-29T17:31:15.896Z,25.40
2022-07-29T17:33:47.522Z,25.40
2022-07-29T17:36:28.013Z,25.40
2022-07-29T17:39:00.802Z,25.30
2022-07-29T17:41:32.307Z,25.30
2022-07-29T17:44:04.064Z,25.30
2022-07-29T17:46:38.183Z,25.20
2022-07-29T17:49:10.266Z,25.10
2022-07-29T17:51:41.697Z,25.20
2022-07-29T17:54:13.453Z,25.10
2022-07-29T17:56:44.546Z,25.10
2022-07-29T17:59:16.126Z,25.10
2022-07-29T18:01:50.072Z,25.10
2022-07-29T18:04:23.636Z,25.00
2022-07-29T18:06:54.954Z,24.80
2022-07-29T18:09:26.668Z,24.80
2022-07-29T18:11:58.011Z,24.80
2022-07-29T18:14:29.575Z,24.80
2022-07-29T18:17:03.513Z,24.70
2022-07-29T18:19:35.023Z,24.60
2022-07-29T18:22:07.625Z,24.40
2022-07-29T18:24:39.299Z,24.40
2022-07-29T18:27:11.094Z,24.30
2022-07-29T18:29:42.625Z,24.30
2022-07-29T18:32:16.493Z,24.40
2022-07-29T18:34:48.178Z,24.30
2022-07-29T18:37:19.433Z,24.30
2022-07-29T18:40:13.199Z,24.20
2022-07-29T18:42:44.425Z,24.10
2022-07-29T18:45:19.171Z,24.20
2022-07-29T18:47:53.611Z,24.10
2022-07-29T18:50:29.288Z,24.10
2022-07-29T18:53:03.471Z,24.10
2022-07-29T18:55:34.966Z,24.20
2022-07-29T18:58:06.303Z,24.20
2022-07-29T19:00:37.930Z,24.30
2022-07-29T19:03:12.108Z,24.20
2022-07-29T19:05:43.646Z,24.00
2022-07-29T19:08:14.930Z,23.90
2022-07-29T19:10:46.702Z,23.80
2022-07-29T19:13:18.101Z,23.90
2022-07-29T19:15:49.349Z,23.90
2022-07-29T19:18:23.117Z,24.00
2022-07-29T19:20:54.734Z,24.10
2022-07-29T19:23:26.107Z,24.20
2022-07-29T19:25:57.682Z,24.10
2022-07-29T19:28:29.079Z,24.00
2022-07-29T19:31:00.854Z,24.00
2022-07-29T19:33:34.928Z,24.00
2022-07-29T19:36:06.592Z,24.10
2022-07-29T19:38:38.418Z,24.10
2022-07-29T19:41:09.834Z,24.10
2022-07-29T19:43:51.149Z,24.20
2022-07-29T19:46:24.493Z,24.20
2022-07-29T19:48:59.014Z,24.10
2022-07-29T19:51:30.785Z,24.00
2022-07-29T19:54:02.130Z,24.00
2022-07-29T19:56:33.587Z,24.00
2022-07-29T19:59:07.284Z,24.00
2022-07-29T20:01:39.776Z,23.90
2022-07-29T20:04:13.693Z,23.90
2022-07-29T20:06:45.506Z,24.00
2022-07-29T20:09:20.361Z,24.00
2022-07-29T20:11:52.309Z,24.00
2022-07-29T20:14:23.718Z,24.10
2022-07-29T20:16:56.028Z,24.10
2022-07-29T20:19:31.058Z,24.00
2022-07-29T20:22:02.786Z,24.00
2022-07-29T20:24:34.425Z,24.00
2022-07-29T20:27:13.719Z,24.00
2022-07-29T20:29:45.560Z,23.90
2022-07-29T20:32:17.045Z,23.90
2022-07-29T20:34:50.909Z,23.90
2022-07-29T20:37:22.436Z,23.80
2022-07-29T20:39:53.628Z,23.50
2022-07-29T20:42:25.268Z,23.60
2022-07-29T20:44:58.089Z,23.60
2022-07-29T20:47:29.604Z,23.60
2022-07-29T20:50:03.964Z,23.50
2022-07-29T20:52:35.648Z,23.60
2022-07-29T20:55:07.757Z,23.60
2022-07-29T20:57:40.130Z,23.40
2022-07-29T21:00:12.665Z,23.30
2022-07-29T21:02:44.367Z,23.20
2022-07-29T21:05:18.291Z,23.20
2022-07-29T21:07:50.090Z,23.20
2022-07-29T21:10:21.684Z,23.20
2022-07-29T21:12:53.247Z,23.20
2022-07-29T21:15:24.920Z,23.10
2022-07-29T21:18:00.751Z,23.10
2022-07-29T21:20:34.729Z,23.30
2022-07-29T21:23:07.917Z,23.20
2022-07-29T21:25:39.493Z,23.30
2022-07-29T21:28:23.312Z,23.40
2022-07-29T21:30:54.608Z,23.30
2022-07-29T21:33:26.488Z,23.30
2022-07-29T21:36:42.438Z,23.40
2022-07-29T21:38:52.137Z,23.50
2022-07-29T21:41:23.372Z,23.50
2022-07-29T21:43:55.052Z,23.40
2022-07-29T21:46:29.796Z,23.40
2022-07-29T21:49:01.252Z,23.40
2022-07-29T21:51:35.206Z,23.40
2022-07-29T21:54:07.043Z,23.40
2022-07-29T21:56:39.693Z,23.40
2022-07-29T21:59:12.946Z,23.40
2022-07-29T22:01:44.425Z,23.30
2022-07-29T22:04:16.069Z,23.20
2022-07-29T22:06:50.070Z,23.30
2022-07-29T22:09:21.676Z,23.30
2022-07-29T22:11:53.041Z,23.20
2022-07-29T22:14:24.629Z,23.20
2022-07-29T22:16:58.305Z,23.10
2022-07-29T22:19:30.349Z,23.10
2022-07-29T22:22:04.969Z,23.10
2022-07-29T22:24:36.900Z,23.20
2022-07-29T22:27:08.627Z,23.10
2022-07-29T22:29:40.302Z,23.10
2022-07-29T22:32:11.604Z,23.10
2022-07-29T22:34:43.054Z,23.10
2022-07-29T22:37:16.908Z,23.20
2022-07-29T22:39:48.445Z,23.20
2022-07-29T22:42:19.825Z,23.10
2022-07-29T22:44:51.035Z,23.10
2022-07-29T22:47:46.243Z,23.00
2022-07-29T22:50:13.748Z,23.10
2022-07-29T22:52:47.707Z,23.00
2022-07-29T22:55:19.210Z,23.00
2022-07-29T22:57:50.448Z,22.90
2022-07-29T23:00:22.207Z,23.00
2022-07-29T23:02:53.440Z,23.00
2022-07-29T23:05:24.944Z,23.00
2022-07-29T23:07:58.831Z,23.10
2022-07-29T23:10:30.808Z,22.90
2022-07-29T23:13:02.115Z,23.00
2022-07-29T23:15:33.328Z,22.90
2022-07-29T23:18:04.521Z,22.90
2022-07-29T23:20:36.320Z,22.90
2022-07-29T23:23:10.104Z,23.00
2022-07-29T23:25:41.627Z,23.00
2022-07-29T23:28:13.402Z,23.00
2022-07-29T23:30:45.433Z,23.00
2022-07-29T23:33:16.706Z,22.90
2022-07-29T23:35:48.316Z,22.80
2022-07-29T23:38:22.167Z,22.80
2022-07-29T23:40:53.923Z,22.70
2022-07-29T23:43:25.241Z,22.80
2022-07-29T23:45:58.089Z,22.80
2022-07-29T23:48:31.959Z,22.90
2022-07-29T23:51:03.525Z,22.90
2022-07-29T23:53:38.906Z,22.90
2022-07-29T23:56:25.885Z,22.80
2022-07-29T23:58:57.303Z,22.70
